Time;durP1;ratioP1;P1;durP2;ratioP2;P2;SDS_P1;SDS_P2;PMS_P1;PMS_P2;Temp;Humidity;BMP_temperature;BMP_pressure;BME280_temperature;BME280_humidity;BME280_pressure;Samples;Min_cycle;Max_cycle;Signal;HPM_P1;HPM_P2
2021/11/07 00:04:42;;;;;;;3.47;2.17;;;;;;;15.48;45.51;101542.97;4968466;28;20441;-74
2021/11/07 00:07:15;;;;;;;3.28;1.85;;;;;;;15.49;45.51;101539.22;4999746;28;20756;-74
2021/11/07 00:12:21;;;;;;;4.72;2.20;;;;;;;15.47;45.42;101552.16;4998016;28;20133;-74
2021/11/07 00:14:50;;;;;;;4.32;2.22;;;;;;;15.48;45.36;101532.84;4982731;28;20050;-73
2021/11/07 00:17:20;;;;;;;3.38;1.95;;;;;;;15.49;45.51;101523.66;5002339;28;20103;-74
2021/11/07 00:19:54;;;;;;;4.38;2.20;;;;;;;15.48;45.12;101521.91;4993652;28;20085;-74
2021/11/07 00:22:36;;;;;;;5.13;2.30;;;;;;;15.49;45.54;101507.25;4999476;28;20100;-74
2021/11/07 00:25:16;;;;;;;3.90;2.00;;;;;;;15.48;45.50;101518.34;4991523;28;20054;-74
2021/11/07 00:27:58;;;;;;;4.80;2.15;;;;;;;15.48;45.77;101532.00;5000197;28;20129;-73
2021/11/07 00:37:55;;;;;;;3.70;2.20;;;;;;;15.48;45.71;101508.22;4989566;28;20046;-75
2021/11/07 00:40:34;;;;;;;4.95;2.47;;;;;;;15.51;45.47;101491.59;4990036;28;20057;-75
2021/11/07 00:43:06;;;;;;;4.03;2.30;;;;;;;15.52;45.48;101486.97;5004960;28;20072;-74
2021/11/07 00:51:04;;;;;;;4.88;2.15;;;;;;;15.51;45.81;101494.31;5004497;28;20057;-74
2021/11/07 01:01:38;;;;;;;4.80;2.05;;;;;;;15.41;45.93;101479.59;4994003;28;20062;-74
2021/11/07 01:04:06;;;;;;;3.42;2.15;;;;;;;15.42;46.13;101472.25;4986046;28;20417;-73
2021/11/07 01:06:34;;;;;;;4.00;1.95;;;;;;;15.39;46.30;101486.19;4972236;28;20450;-74
2021/11/07 01:09:02;;;;;;;4.13;2.20;;;;;;;15.36;45.96;101490.03;4988655;28;20719;-74
2021/11/07 01:11:29;;;;;;;5.20;2.50;;;;;;;15.35;46.07;101476.47;4992648;28;20156;-74
2021/11/07 01:13:56;;;;;;;4.40;2.60;;;;;;;15.34;46.46;101470.13;4991428;28;20070;-74
2021/11/07 01:16:23;;;;;;;4.93;2.60;;;;;;;15.32;46.29;101479.47;4994533;28;20073;-74
2021/11/07 01:18:50;;;;;;;5.65;2.50;;;;;;;15.30;46.17;101475.97;4993289;28;20137;-74
2021/11/07 01:21:18;;;;;;;5.10;2.40;;;;;;;15.27;46.30;101468.84;4980969;28;20142;-74
2021/11/07 01:24:29;;;;;;;4.13;2.42;;;;;;;15.27;46.77;101465.25;4997442;28;20406;-74
2021/11/07 01:26:44;;;;;;;3.70;2.47;;;;;;;15.19;46.48;101469.44;4980362;28;20112;-75
2021/11/07 01:29:14;;;;;;;4.90;2.28;;;;;;;15.20;46.68;101481.25;4990430;28;20597;-74
2021/11/07 01:31:43;;;;;;;4.78;2.40;;;;;;;15.19;46.79;101474.91;5001217;28;20089;-74
2021/11/07 01:34:22;;;;;;;3.45;2.25;;;;;;;15.17;47.23;101460.47;5006120;28;20117;-73
2021/11/07 01:36:53;;;;;;;4.70;2.42;;;;;;;15.16;47.32;101466.06;5000846;28;20054;-73
2021/11/07 01:39:23;;;;;;;4.57;2.65;;;;;;;15.15;47.37;101467.91;5002678;28;20405;-73
2021/11/07 01:44:36;;;;;;;5.18;2.20;;;;;;;15.16;47.86;101450.50;5001313;28;20057;-76
2021/11/07 01:47:03;;;;;;;5.38;2.30;;;;;;;15.11;47.61;101454.59;4989935;28;20085;-74
2021/11/07 01:49:36;;;;;;;3.92;2.60;;;;;;;15.09;47.77;101451.97;5000166;28;20052;-73
2021/11/07 01:52:04;;;;;;;6.93;2.30;;;;;;;15.06;47.52;101446.75;4979838;28;20145;-73
2021/11/07 01:54:36;;;;;;;5.13;2.33;;;;;;;15.09;47.71;101445.63;4996391;28;20463;-73
2021/11/07 01:57:03;;;;;;;4.07;2.25;;;;;;;15.05;47.83;101439.53;5007219;28;20125;-73
2021/11/07 01:59:30;;;;;;;5.20;2.38;;;;;;;15.06;48.05;101437.69;4993351;28;20125;-73
2021/11/07 02:01:59;;;;;;;4.60;2.65;;;;;;;15.06;47.86;101427.63;4979676;28;20125;-73
2021/11/07 02:04:25;;;;;;;5.25;2.33;;;;;;;15.05;47.89;101425.88;4986472;28;20046;-72
2021/11/07 02:06:52;;;;;;;4.60;2.30;;;;;;;15.02;47.95;101426.09;4993966;28;20108;-73
2021/11/07 02:09:19;;;;;;;4.15;2.28;;;;;;;15.01;47.89;101410.66;4995123;28;20140;-74
2021/11/07 02:11:46;;;;;;;3.67;2.30;;;;;;;14.99;47.95;101412.63;5009779;28;20050;-74
2021/11/07 02:14:13;;;;;;;4.75;2.35;;;;;;;14.97;48.13;101403.72;5002529;28;20484;-74
2021/11/07 02:16:39;;;;;;;4.45;2.28;;;;;;;14.96;48.50;101410.16;4990832;28;20406;-74
2021/11/07 02:19:06;;;;;;;4.10;2.35;;;;;;;14.94;48.51;101397.59;4997467;28;20084;-74
2021/11/07 02:21:33;;;;;;;3.60;2.22;;;;;;;14.94;48.33;101397.59;5007423;28;20064;-74
2021/11/07 02:24:01;;;;;;;3.95;2.00;;;;;;;14.93;48.34;101401.31;5006549;28;20349;-74
2021/11/07 02:26:27;;;;;;;4.10;2.22;;;;;;;14.90;48.65;101388.75;4992561;28;20043;-74
2021/11/07 02:28:55;;;;;;;3.40;2.10;;;;;;;14.88;48.62;101385.25;5008424;28;20601;-74
2021/11/07 02:31:21;;;;;;;4.43;2.30;;;;;;;14.87;48.47;101383.53;4996073;28;20061;-74
2021/11/07 02:33:48;;;;;;;3.15;2.00;;;;;;;14.85;48.75;101372.69;4997146;28;20097;-74
2021/11/07 02:36:17;;;;;;;3.90;2.30;;;;;;;14.85;49.14;101371.81;5001663;28;20507;-74
2021/11/07 02:38:46;;;;;;;4.40;2.30;;;;;;;14.84;49.23;101379.16;5011784;28;20160;-74
2021/11/07 02:41:13;;;;;;;4.03;2.00;;;;;;;14.82;48.71;101372.06;4998191;28;20097;-74
2021/11/07 02:43:47;;;;;;;3.17;2.10;;;;;;;14.82;49.54;101372.91;5007374;28;20165;-74
2021/11/07 02:46:17;;;;;;;3.05;2.15;;;;;;;14.79;49.22;101373.16;4985779;28;20046;-74
2021/11/07 02:48:47;;;;;;;4.32;2.20;;;;;;;14.78;49.46;101365.94;5003904;28;20049;-73
2021/11/07 02:51:14;;;;;;;3.10;2.00;;;;;;;14.76;49.44;101359.72;5006078;28;20137;-73
2021/11/07 02:53:41;;;;;;;2.78;1.83;;;;;;;14.75;49.28;101360.72;4990322;28;20052;-73
2021/11/07 02:56:08;;;;;;;3.70;2.03;;;;;;;14.75;49.02;101348.91;4992094;28;20141;-75
2021/11/07 02:58:35;;;;;;;4.05;2.10;;;;;;;14.74;49.23;101344.44;4994551;28;20043;-73
2021/11/07 03:01:05;;;;;;;4.10;2.30;;;;;;;14.73;49.51;101359.97;4990947;28;20137;-73
2021/11/07 03:03:32;;;;;;;3.47;1.80;;;;;;;14.73;49.59;101350.91;5003214;28;20082;-73
2021/11/07 03:06:01;;;;;;;3.00;1.90;;;;;;;14.72;49.47;101344.56;4979035;28;20077;-73
2021/11/07 03:08:29;;;;;;;4.45;2.47;;;;;;;14.74;49.49;101341.72;4992318;28;20145;-74
2021/11/07 03:10:58;;;;;;;3.20;2.10;;;;;;;14.74;49.51;101336.25;4998665;28;20139;-73
2021/11/07 03:13:25;;;;;;;2.92;2.10;;;;;;;14.72;49.34;101339.09;4997032;28;20096;-74
2021/11/07 03:15:52;;;;;;;4.22;2.63;;;;;;;14.72;49.86;101340.97;4977058;28;20148;-73
2021/11/07 03:18:19;;;;;;;3.88;2.30;;;;;;;14.72;49.73;101338.22;4999344;28;20053;-74
2021/11/07 03:20:45;;;;;;;3.33;2.53;;;;;;;14.72;49.75;101327.28;5000036;28;20105;-73
2021/11/07 03:23:19;;;;;;;4.78;2.28;;;;;;;14.72;49.86;101343.69;5001971;28;20145;-74
2021/11/07 03:25:50;;;;;;;4.15;2.55;;;;;;;14.71;49.92;101329.16;4990805;28;20050;-74
2021/11/07 03:28:17;;;;;;;3.70;2.50;;;;;;;14.72;49.75;101327.28;4995434;28;20489;-74
2021/11/07 03:30:54;;;;;;;4.60;2.63;;;;;;;14.69;49.49;101325.66;4973353;28;20132;-74
2021/11/07 03:35:48;;;;;;;3.50;2.55;;;;;;;14.67;49.99;101315.81;4990477;28;20129;-74
2021/11/07 03:38:15;;;;;;;3.58;2.55;;;;;;;14.66;49.49;101323.16;4994437;28;20128;-74
2021/11/07 03:40:42;;;;;;;3.83;2.80;;;;;;;14.67;50.26;101319.44;5004113;28;20104;-74
2021/11/07 03:43:09;;;;;;;4.47;2.67;;;;;;;14.66;49.99;101312.22;5002953;28;20133;-74
2021/11/07 03:45:36;;;;;;;4.22;2.65;;;;;;;14.64;50.02;101295.09;5000164;28;20078;-74
2021/11/07 03:48:04;;;;;;;3.67;2.75;;;;;;;14.66;50.24;101305.91;4997121;28;20085;-73
2021/11/07 03:50:31;;;;;;;3.65;2.90;;;;;;;14.65;50.12;101304.16;5004912;28;20165;-74
2021/11/07 03:52:58;;;;;;;4.00;2.80;;;;;;;14.66;50.24;101287.63;4990495;28;20081;-74
2021/11/07 03:55:25;;;;;;;3.55;2.80;;;;;;;14.66;49.85;101265.75;4996867;28;20057;-74
2021/11/07 03:57:52;;;;;;;4.20;2.75;;;;;;;14.65;49.99;101277.69;4998037;28;20050;-74
2021/11/07 04:00:21;;;;;;;4.00;2.72;;;;;;;14.67;50.28;101278.44;4997140;28;20324;-74
2021/11/07 04:02:48;;;;;;;4.53;2.47;;;;;;;14.66;49.99;101278.56;5006160;28;20478;-74
2021/11/07 04:05:15;;;;;;;4.22;2.55;;;;;;;14.65;49.98;101261.31;4976279;28;20057;-74
2021/11/07 04:07:42;;;;;;;3.63;2.60;;;;;;;14.66;50.47;101256.72;4982248;28;20050;-73
2021/11/07 04:10:10;;;;;;;3.78;2.65;;;;;;;14.67;50.61;101259.31;4995710;28;20148;-74
2021/11/07 04:12:37;;;;;;;4.88;2.60;;;;;;;14.68;50.09;101258.31;5003979;28;20584;-73
2021/11/07 04:15:08;;;;;;;3.78;2.67;;;;;;;14.67;50.34;101253.84;4975803;28;20054;-74
2021/11/07 04:17:36;;;;;;;3.50;2.53;;;;;;;14.67;50.28;101253.84;4977939;28;20387;-74
2021/11/07 04:20:04;;;;;;;3.97;2.70;;;;;;;14.69;50.18;101245.53;5000314;28;20364;-74
2021/11/07 04:22:31;;;;;;;4.55;2.83;;;;;;;14.68;50.78;101255.59;5002820;28;20136;-73
2021/11/07 04:24:58;;;;;;;3.95;2.60;;;;;;;14.69;50.67;101251.88;4981285;28;20500;-74
2021/11/07 04:27:25;;;;;;;4.65;2.60;;;;;;;14.70;50.57;101250.88;5006100;28;20121;-74
2021/11/07 04:29:55;;;;;;;4.10;2.50;;;;;;;14.71;50.89;101244.41;4992912;28;20066;-74
2021/11/07 04:32:22;;;;;;;4.05;2.63;;;;;;;14.72;50.83;101242.56;5002988;28;20145;-74
2021/11/07 04:34:48;;;;;;;4.38;2.80;;;;;;;14.74;50.67;101241.44;4983524;28;20132;-74
2021/11/07 04:37:15;;;;;;;3.83;2.35;;;;;;;14.73;50.70;101252.50;4989914;28;20046;-74
2021/11/07 04:39:42;;;;;;;4.18;2.50;;;;;;;14.74;50.47;101241.44;4999119;28;20476;-74
2021/11/07 04:42:10;;;;;;;4.82;2.95;;;;;;;14.76;50.79;101235.84;5002872;28;20480;-74
2021/11/07 04:44:37;;;;;;;3.47;2.45;;;;;;;14.77;50.61;101224.81;4981397;28;20137;-74
2021/11/07 04:47:04;;;;;;;3.58;2.53;;;;;;;14.77;51.03;101232.13;4997453;28;20133;-74
2021/11/07 04:49:31;;;;;;;4.50;3.00;;;;;;;14.78;50.69;101228.41;4984106;28;20134;-74
2021/11/07 04:51:58;;;;;;;4.70;2.97;;;;;;;14.80;50.67;101232.78;4995831;28;20141;-74
2021/11/07 04:54:27;;;;;;;4.43;2.90;;;;;;;14.82;50.82;101224.47;5007809;28;20089;-74
2021/11/07 04:56:54;;;;;;;3.70;2.30;;;;;;;14.80;50.98;101216.38;4974495;28;20038;-74
2021/11/07 04:59:21;;;;;;;3.78;2.47;;;;;;;14.80;50.83;101208.16;4987730;28;20052;-74
2021/11/07 05:01:48;;;;;;;4.68;2.83;;;;;;;14.82;50.82;101221.72;5003351;28;20532;-74
2021/11/07 05:04:15;;;;;;;4.85;2.88;;;;;;;14.84;50.74;101214.25;4969802;28;20548;-74
2021/11/07 05:06:42;;;;;;;4.80;3.10;;;;;;;14.86;50.82;101187.66;4974273;28;20129;-74
2021/11/07 05:09:09;;;;;;;4.28;3.30;;;;;;;14.89;50.67;101208.44;5002844;28;20142;-74
2021/11/07 05:11:36;;;;;;;4.07;2.95;;;;;;;14.87;50.83;101197.63;4976210;28;20077;-74
2021/11/07 05:14:02;;;;;;;3.85;3.13;;;;;;;14.87;51.04;101194.88;4993111;28;20485;-74
2021/11/07 05:16:29;;;;;;;3.78;2.78;;;;;;;14.88;51.17;101187.56;4992058;28;20137;-74
2021/11/07 05:18:56;;;;;;;4.03;2.95;;;;;;;14.90;51.14;101178.25;4991051;28;20134;-74
2021/11/07 05:21:23;;;;;;;5.03;3.08;;;;;;;14.90;51.13;101180.09;5000606;28;20478;-74
2021/11/07 05:23:49;;;;;;;4.60;3.20;;;;;;;14.94;51.10;101178.84;4990733;28;20137;-74
2021/11/07 05:26:16;;;;;;;6.30;3.55;;;;;;;14.94;50.92;101190.66;4995761;28;20077;-74
2021/11/07 05:28:43;;;;;;;4.60;3.40;;;;;;;14.95;51.17;101186.06;4991476;28;20050;-74
2021/11/07 05:31:09;;;;;;;5.53;3.65;;;;;;;14.95;51.35;101176.00;4996743;28;20105;-74
2021/11/07 05:33:36;;;;;;;5.25;3.80;;;;;;;14.97;51.05;101175.88;4990452;28;20134;-74
2021/11/07 05:36:03;;;;;;;5.65;3.63;;;;;;;14.98;51.33;101180.38;4962919;28;20070;-74
2021/11/07 05:38:29;;;;;;;4.72;3.33;;;;;;;14.98;50.99;101169.44;4987532;28;20318;-74
2021/11/07 05:40:56;;;;;;;3.90;3.22;;;;;;;14.98;51.02;101166.69;4996846;28;20470;-74
2021/11/07 05:43:23;;;;;;;4.57;3.72;;;;;;;14.99;51.01;101182.94;5002695;28;20145;-74
2021/11/07 05:45:50;;;;;;;4.25;3.40;;;;;;;15.00;51.27;101187.44;5006251;28;20813;-74
2021/11/07 05:48:17;;;;;;;4.13;3.30;;;;;;;15.01;51.15;101169.16;4989420;28;20125;-74
2021/11/07 05:50:45;;;;;;;5.45;3.67;;;;;;;15.03;51.16;101169.91;4996609;28;20156;-74
2021/11/07 05:53:12;;;;;;;5.60;3.78;;;;;;;15.03;50.99;101165.31;4993844;28;20470;-74
2021/11/07 05:55:39;;;;;;;5.88;3.92;;;;;;;15.03;51.11;101150.78;5006389;28;20055;-74
2021/11/07 05:58:06;;;;;;;5.30;3.50;;;;;;;15.02;51.35;101152.63;4995402;28;20408;-74
2021/11/07 06:00:33;;;;;;;4.43;3.58;;;;;;;15.04;51.43;101155.25;4990511;28;20058;-73
2021/11/07 06:03:02;;;;;;;5.05;3.70;;;;;;;15.03;51.14;101162.59;4973423;28;20051;-74
2021/11/07 06:05:28;;;;;;;4.80;3.55;;;;;;;15.04;51.25;101150.66;4988190;28;20557;-73
2021/11/07 06:07:55;;;;;;;4.93;3.55;;;;;;;15.08;51.54;101156.72;4986665;28;20122;-74
2021/11/07 06:10:21;;;;;;;5.03;3.90;;;;;;;15.08;51.40;101159.47;4998016;28;20148;-74
2021/11/07 06:12:48;;;;;;;4.90;3.17;;;;;;;15.06;51.56;101166.94;4998443;28;20133;-73
2021/11/07 06:15:15;;;;;;;4.65;3.53;;;;;;;15.06;51.41;101178.75;4988408;28;20053;-73
2021/11/07 06:17:41;;;;;;;5.05;3.63;;;;;;;15.08;51.44;101170.41;5003945;28;20043;-74
2021/11/07 06:20:09;;;;;;;5.80;3.47;;;;;;;15.09;51.58;101174.88;5002903;28;20069;-74
2021/11/07 06:22:36;;;;;;;4.88;3.33;;;;;;;15.09;51.46;101169.41;5006422;28;20081;-74
2021/11/07 06:25:04;;;;;;;4.78;3.90;;;;;;;15.10;51.47;101173.91;4988371;28;20556;-74
2021/11/07 06:27:31;;;;;;;5.75;3.30;;;;;;;15.11;51.60;101184.72;4993608;28;20189;-74
2021/11/07 06:29:59;;;;;;;5.80;3.10;;;;;;;15.12;51.52;101175.53;5004285;28;20064;-74
2021/11/07 06:32:26;;;;;;;5.03;3.53;;;;;;;15.15;51.87;101188.09;5006916;28;20140;-74
2021/11/07 06:34:52;;;;;;;5.28;3.38;;;;;;;15.16;51.81;101193.41;4984947;28;20531;-74
2021/11/07 06:37:19;;;;;;;4.43;3.20;;;;;;;15.16;51.55;101187.94;4981147;28;20068;-74
2021/11/07 06:39:46;;;;;;;4.55;2.92;;;;;;;15.17;51.90;101186.06;4983900;28;20053;-75
2021/11/07 06:42:13;;;;;;;5.85;3.15;;;;;;;15.17;52.06;101197.00;5007599;28;20054;-74
2021/11/07 06:44:40;;;;;;;4.88;3.00;;;;;;;15.20;51.84;101194.03;4994410;28;20132;-75
2021/11/07 06:47:08;;;;;;;6.03;3.10;;;;;;;15.20;52.06;101191.31;5007990;28;20046;-74
2021/11/07 06:49:35;;;;;;;3.70;2.97;;;;;;;15.21;51.86;101193.94;4992862;28;20069;-75
2021/11/07 06:52:03;;;;;;;4.45;2.80;;;;;;;15.23;51.73;101180.13;4979286;28;20127;-74
2021/11/07 06:54:31;;;;;;;4.97;3.00;;;;;;;15.24;52.00;101199.13;5001658;28;20128;-74
2021/11/07 06:56:58;;;;;;;4.35;3.03;;;;;;;15.24;52.14;101203.72;4992893;28;20050;-74
2021/11/07 06:59:25;;;;;;;4.50;2.60;;;;;;;15.26;52.19;101201.75;4994993;28;20134;-74
2021/11/07 07:01:52;;;;;;;4.43;3.00;;;;;;;15.27;51.59;101198.03;4998142;28;20093;-74
2021/11/07 07:04:18;;;;;;;3.53;2.65;;;;;;;15.28;52.08;101207.97;4976970;28;20133;-74
2021/11/07 07:06:45;;;;;;;4.60;2.80;;;;;;;15.29;52.19;101215.19;4989916;28;20066;-74
2021/11/07 07:09:15;;;;;;;5.70;3.05;;;;;;;15.28;51.85;101199.75;4996721;28;20127;-74
2021/11/07 07:11:47;;;;;;;7.25;3.30;;;;;;;15.30;52.18;101205.13;4997646;28;20528;-74
2021/11/07 07:21:52;;;;;;;4.22;2.70;;;;;;;15.31;52.32;101210.47;4991241;28;20054;-74
2021/11/07 07:30:12;;;;;;;4.40;2.72;;;;;;;15.30;52.08;101192.31;4996933;28;20146;-74
2021/11/07 07:32:45;;;;;;;4.72;2.85;;;;;;;15.31;52.51;101205.00;4989706;28;20165;-74
2021/11/07 07:35:13;;;;;;;4.28;2.90;;;;;;;15.32;52.44;101212.19;4999651;28;20060;-74
2021/11/07 07:37:40;;;;;;;4.82;2.90;;;;;;;15.31;52.66;101212.34;5003052;28;20039;-74
2021/11/07 07:40:08;;;;;;;4.43;2.53;;;;;;;15.33;52.31;101210.31;4986393;28;20581;-74
2021/11/07 07:42:35;;;;;;;4.07;2.58;;;;;;;15.32;52.45;101211.34;5001792;28;20038;-75
2021/11/07 07:45:02;;;;;;;4.82;2.53;;;;;;;15.34;52.36;101212.06;4994718;28;20050;-74
2021/11/07 07:47:29;;;;;;;4.40;2.58;;;;;;;15.35;52.47;101211.94;4989972;28;20054;-75
2021/11/07 07:49:58;;;;;;;4.00;2.50;;;;;;;15.35;52.09;101211.06;4969480;28;20105;-75
2021/11/07 07:52:26;;;;;;;3.92;2.80;;;;;;;15.36;52.47;101205.47;5006076;28;20173;-73
2021/11/07 07:54:53;;;;;;;4.35;2.83;;;;;;;15.38;51.86;101205.38;4997288;28;20409;-75
2021/11/07 07:57:20;;;;;;;5.07;2.65;;;;;;;15.38;52.38;101214.44;4976821;28;20086;-76
2021/11/07 07:59:47;;;;;;;4.13;2.85;;;;;;;15.39;52.33;101209.84;4972474;28;20058;-75
2021/11/07 08:02:14;;;;;;;4.18;2.85;;;;;;;15.40;52.24;101209.69;4984840;28;20142;-74
2021/11/07 08:04:41;;;;;;;4.43;2.60;;;;;;;15.40;52.69;101208.84;4995909;28;20077;-74
2021/11/07 08:07:07;;;;;;;3.70;2.75;;;;;;;15.43;52.39;101205.84;4991574;28;20125;-73
2021/11/07 08:09:34;;;;;;;4.00;2.90;;;;;;;15.43;52.37;101209.47;4976594;28;20505;-74
2021/11/07 08:12:01;;;;;;;4.50;2.53;;;;;;;15.44;52.68;101215.81;5000794;28;20145;-74
2021/11/07 08:14:27;;;;;;;5.47;2.90;;;;;;;15.46;52.28;101213.81;4985376;28;20085;-74
2021/11/07 08:16:56;;;;;;;4.00;2.63;;;;;;;15.49;52.60;101213.53;4988349;28;20108;-74
2021/11/07 08:19:22;;;;;;;5.25;2.85;;;;;;;15.49;52.52;101210.81;4979831;28;20406;-74
2021/11/07 08:21:49;;;;;;;5.38;2.85;;;;;;;15.51;52.14;101200.63;5011435;28;20121;-74
2021/11/07 08:24:17;;;;;;;4.88;2.70;;;;;;;15.54;52.32;101208.63;4970493;28;20042;-74
2021/11/07 08:26:44;;;;;;;4.47;2.75;;;;;;;15.55;52.25;101210.38;4987348;28;20078;-73
2021/11/07 08:29:13;;;;;;;3.92;2.80;;;;;;;15.57;52.44;101208.34;5000028;28;20081;-74
2021/11/07 08:31:42;;;;;;;5.00;2.70;;;;;;;15.58;52.27;101210.97;4976149;28;20137;-74
2021/11/07 08:34:09;;;;;;;4.45;2.65;;;;;;;15.58;52.71;101208.22;4990937;28;20145;-74
2021/11/07 08:36:47;;;;;;;4.70;2.67;;;;;;;15.59;52.55;101223.66;4990432;28;20133;-74
2021/11/07 08:39:18;;;;;;;4.70;2.53;;;;;;;15.63;52.12;101220.69;4992648;28;20144;-74
2021/11/07 08:41:51;;;;;;;4.57;2.80;;;;;;;15.62;52.37;101214.34;4974180;28;20081;-74
2021/11/07 09:03:57;;;;;;;3.88;2.60;;;;;;;15.69;52.17;101248.41;4991489;28;20090;-73
2021/11/07 09:06:43;;;;;;;5.60;2.40;;;;;;;15.71;52.08;101235.47;4992653;28;20085;-73
2021/11/07 09:09:12;;;;;;;4.95;2.40;;;;;;;15.72;52.16;101229.00;4974880;28;20485;-73
2021/11/07 09:11:49;;;;;;;6.07;2.63;;;;;;;15.76;52.18;101229.63;4982416;28;20050;-74
2021/11/07 09:14:18;;;;;;;4.47;2.22;;;;;;;15.77;51.59;101234.97;4975417;28;20054;-74
2021/11/07 09:16:47;;;;;;;6.30;3.25;;;;;;;15.80;51.87;101232.00;4975229;28;20134;-73
2021/11/07 09:19:18;;;;;;;5.78;2.70;;;;;;;15.80;52.09;101234.72;4974128;28;20054;-73
2021/11/07 09:21:49;;;;;;;5.75;2.30;;;;;;;15.83;51.75;101241.78;4974350;28;20077;-74
2021/11/07 09:24:29;;;;;;;7.13;2.35;;;;;;;15.84;51.47;101229.84;4990514;28;20463;-73
2021/11/07 09:26:57;;;;;;;5.95;2.60;;;;;;;15.85;51.57;101229.72;4989030;28;20145;-73
2021/11/07 09:37:30;;;;;;;6.43;2.30;;;;;;;15.93;51.17;101245.50;5000869;28;20146;-73
2021/11/07 09:40:00;;;;;;;9.30;2.50;;;;;;;15.94;50.92;101244.53;4999388;28;20046;-74
2021/11/07 09:44:59;;;;;;;6.65;1.95;;;;;;;15.94;50.89;101245.41;4989799;28;20070;-73
2021/11/07 09:47:33;;;;;;;7.70;2.20;;;;;;;15.97;50.87;101258.84;4990075;28;20042;-73
2021/11/07 09:50:01;;;;;;;4.65;1.92;;;;;;;15.95;51.09;101258.09;4989139;28;20134;-74
2021/11/07 09:52:35;;;;;;;5.90;2.08;;;;;;;15.98;51.01;101263.28;4993890;28;20057;-74
2021/11/07 09:55:05;;;;;;;5.43;2.13;;;;;;;16.01;50.52;101262.19;4963362;28;20133;-74
2021/11/07 09:57:34;;;;;;;7.45;2.25;;;;;;;16.03;50.83;101259.31;4998244;28;20073;-75
2021/11/07 10:00:03;;;;;;;5.00;2.03;;;;;;;16.04;50.52;101261.06;4995089;28;20151;-74
2021/11/07 10:02:32;;;;;;;4.90;1.80;;;;;;;16.05;50.79;101254.59;5004246;28;20053;-73
2021/11/07 10:05:01;;;;;;;5.80;2.40;;;;;;;16.06;50.53;101257.19;5007971;28;20094;-74
2021/11/07 10:07:33;;;;;;;5.72;2.20;;;;;;;16.08;50.14;101244.22;5004444;28;20050;-74
2021/11/07 10:10:03;;;;;;;7.15;2.38;;;;;;;16.09;50.52;101256.06;4992647;28;20113;-75
2021/11/07 10:12:42;;;;;;;6.55;2.10;;;;;;;16.10;50.14;101255.94;5012562;28;20460;-74
2021/11/07 10:15:40;;;;;;;6.38;2.40;;;;;;;16.11;49.85;101254.94;4997617;28;20045;-74
2021/11/07 10:18:09;;;;;;;5.53;2.17;;;;;;;16.10;50.14;101258.69;4994493;28;20073;-74
2021/11/07 10:20:48;;;;;;;5.43;1.98;;;;;;;16.13;49.38;101263.91;5003648;28;20120;-75
2021/11/07 10:23:24;;;;;;;7.07;2.08;;;;;;;16.13;49.95;101261.19;4988485;28;20111;-76
2021/11/07 10:26:00;;;;;;;5.43;1.80;;;;;;;16.13;49.82;101260.31;5010188;28;20050;-78
2021/11/07 10:28:37;;;;;;;6.60;2.00;;;;;;;16.12;49.65;101250.34;5000918;28;20061;-76
2021/11/07 10:31:17;;;;;;;6.93;1.80;;;;;;;16.13;49.43;101252.09;4978507;28;20058;-77
2021/11/07 10:34:03;;;;;;;5.22;1.80;;;;;;;16.14;49.41;101242.88;4972979;28;20058;-76
2021/11/07 10:42:13;;;;;;;7.80;2.35;;;;;;;16.17;49.04;101251.69;4997236;28;20057;-76
2021/11/07 10:52:47;;;;;;;6.68;1.70;;;;;;;16.16;48.82;101246.31;4996589;28;20058;-75
2021/11/07 10:55:20;;;;;;;6.07;1.50;;;;;;;16.18;49.23;101247.94;5006758;28;20417;-76
2021/11/07 10:57:54;;;;;;;6.95;1.90;;;;;;;16.20;48.83;101245.09;4992173;28;20096;-76
2021/11/07 11:00:29;;;;;;;5.20;1.73;;;;;;;16.24;48.45;101249.28;5004804;28;20128;-75
2021/11/07 11:02:58;;;;;;;4.32;1.60;;;;;;;16.23;48.42;101244.81;4998321;28;20046;-76
2021/11/07 11:05:38;;;;;;;4.80;1.77;;;;;;;16.28;48.47;101248.94;4993919;28;20100;-76
2021/11/07 11:08:23;;;;;;;8.65;2.00;;;;;;;16.28;49.33;101240.69;4985071;28;20437;-76
2021/11/07 11:16:10;;;;;;;6.93;1.92;;;;;;;16.46;48.31;101235.53;5000382;28;20050;-76
2021/11/07 11:30:09;;;;;;;5.32;2.10;;;;;;;16.71;47.58;101231.59;4993220;28;20117;-76
2021/11/07 11:32:53;;;;;;;8.48;1.80;;;;;;;16.71;47.57;101226.97;4993134;28;20132;-76
2021/11/07 11:35:45;;;;;;;5.65;1.50;;;;;;;16.75;47.48;101222.06;5010638;28;20059;-76
2021/11/07 11:38:14;;;;;;;4.72;1.60;;;;;;;16.76;47.39;101225.69;4992937;28;20100;-76
2021/11/07 11:43:15;;;;;;;5.18;1.80;;;;;;;16.78;47.61;101219.06;4993477;28;20386;-76
2021/11/07 11:45:44;;;;;;;4.93;1.45;;;;;;;16.76;47.09;101222.94;4968009;28;20509;-76
2021/11/07 11:51:28;;;;;;;5.38;1.50;;;;;;;16.79;46.25;101229.03;4986707;28;20050;-77
2021/11/07 11:57:17;;;;;;;4.75;1.48;;;;;;;16.80;45.87;101211.56;4957650;28;20058;-76
2021/11/07 11:59:57;;;;;;;5.88;1.45;;;;;;;16.77;46.27;101216.47;4987942;28;20047;-76
2021/11/07 12:05:29;;;;;;;4.55;1.40;;;;;;;16.79;46.40;101203.50;4954439;28;20059;-76
2021/11/07 12:10:49;;;;;;;7.72;1.65;;;;;;;16.77;46.60;101187.16;4954311;28;20051;-76
2021/11/07 12:13:57;;;;;;;6.25;1.60;;;;;;;16.80;46.06;101186.03;4946391;28;20132;-76
2021/11/07 12:16:47;;;;;;;5.43;1.58;;;;;;;16.81;45.54;101198.72;4951796;28;20075;-75
2021/11/07 12:19:16;;;;;;;6.35;1.85;;;;;;;16.86;46.77;101190.97;4939219;28;20094;-76
2021/11/07 12:21:50;;;;;;;6.68;1.63;;;;;;;16.90;45.54;101193.31;4952779;28;20058;-76
2021/11/07 12:24:45;;;;;;;5.70;1.55;;;;;;;16.94;44.98;101192.03;4967002;28;20526;-76
2021/11/07 12:27:55;;;;;;;8.40;1.70;;;;;;;16.85;45.41;101181.88;4958390;28;20099;-76
2021/11/07 12:30:24;;;;;;;6.00;1.70;;;;;;;16.92;45.64;101185.81;4874280;29;20085;-76
2021/11/07 12:33:08;;;;;;;3.92;1.27;;;;;;;16.96;45.03;101205.63;4942006;28;20574;-76
2021/11/07 12:36:05;;;;;;;5.70;1.60;;;;;;;16.93;45.13;101209.50;4953026;28;20538;-77
2021/11/07 12:41:20;;;;;;;6.68;2.10;;;;;;;16.92;45.42;101194.03;4950469;28;20052;-76
2021/11/07 12:44:02;;;;;;;4.18;1.60;;;;;;;16.94;44.30;101194.78;4998052;28;20413;-77
2021/11/07 12:46:54;;;;;;;5.78;1.67;;;;;;;16.93;44.50;101186.69;4990645;28;20058;-77
2021/11/07 12:49:27;;;;;;;5.25;1.40;;;;;;;16.89;44.82;101188.81;4996082;28;20066;-77
2021/11/07 12:52:09;;;;;;;6.10;1.90;;;;;;;16.92;43.67;101188.56;4993515;28;20562;-77
2021/11/07 12:54:40;;;;;;;5.72;1.92;;;;;;;16.91;45.10;101185.94;4973927;28;20054;-76
2021/11/07 12:57:11;;;;;;;6.20;2.10;;;;;;;16.88;44.66;101192.59;4994314;28;20081;-77
2021/11/07 12:59:41;;;;;;;7.68;1.88;;;;;;;16.84;45.14;101196.59;4973167;28;20053;-77
2021/11/07 13:02:17;;;;;;;5.13;1.63;;;;;;;16.88;44.50;101181.63;4976635;28;20053;-76
2021/11/07 13:04:53;;;;;;;4.13;1.73;;;;;;;16.85;44.52;101172.78;5010885;28;20054;-76
2021/11/07 13:07:26;;;;;;;5.55;1.70;;;;;;;16.82;44.51;101176.66;4997871;28;20081;-77
2021/11/07 13:09:58;;;;;;;6.32;1.48;;;;;;;16.80;44.96;101167.69;4993385;28;20055;-76
2021/11/07 13:12:37;;;;;;;4.82;1.48;;;;;;;16.80;43.88;101175.06;4999912;28;20081;-75
2021/11/07 13:18:09;;;;;;;7.35;1.70;;;;;;;16.76;44.76;101155.25;4970290;28;20053;-75
2021/11/07 13:28:42;;;;;;;5.78;1.55;;;;;;;16.80;44.70;101161.38;4995178;28;20133;-75
2021/11/07 13:31:23;;;;;;;6.25;1.80;;;;;;;16.82;43.46;101162.94;4998717;28;20056;-74
2021/11/07 13:33:50;;;;;;;4.78;1.73;;;;;;;16.78;43.89;101168.84;5006625;28;20042;-75
2021/11/07 13:36:19;;;;;;;4.78;1.27;;;;;;;16.81;43.66;101144.75;4982761;28;20054;-75
2021/11/07 13:38:50;;;;;;;4.50;1.30;;;;;;;16.80;43.47;101172.34;4990634;28;20082;-75
2021/11/07 13:41:24;;;;;;;4.88;1.48;;;;;;;16.80;42.70;101172.34;4998230;28;20179;-74
2021/11/07 13:44:12;;;;;;;7.60;2.00;;;;;;;16.76;42.19;101182.69;5005410;28;20082;-74
2021/11/07 13:46:54;;;;;;;4.22;1.35;;;;;;;16.73;42.62;101177.47;4976256;28;20062;-72
2021/11/07 13:49:21;;;;;;;5.85;1.60;;;;;;;16.67;43.48;101178.00;4989443;28;20168;-71
2021/11/07 13:51:56;;;;;;;6.75;1.58;;;;;;;16.68;42.64;101172.38;4997391;28;20053;-72
2021/11/07 13:54:23;;;;;;;6.43;1.52;;;;;;;16.64;43.55;101170.91;4995223;28;20061;-71